Time;durP1;ratioP1;P1;durP2;ratioP2;P2;SDS_P1;SDS_P2;PMS_P1;PMS_P2;Temp;Humidity;BMP_temperature;BMP_pressure;BME280_temperature;BME280_humidity;BME280_pressure;Samples;Min_cycle;Max_cycle;Signal;HPM_P1;HPM_P2
2021/12/03 00:00:30;;;;;;;3.08;0.10;;;;;;;-0.59;51.77;100626.78;5009379;28;20030;-70
2021/12/03 00:02:55;;;;;;;3.47;0.10;;;;;;;-0.59;51.81;100623.38;5009338;28;20617;-70
2021/12/03 00:05:21;;;;;;;0.40;0.05;;;;;;;-0.64;51.68;100622.50;5001585;28;20056;-71
2021/12/03 00:07:47;;;;;;;0.82;0.10;;;;;;;-0.71;52.21;100624.19;5007937;28;20120;-70
2021/12/03 00:10:14;;;;;;;5.28;0.10;;;;;;;-0.66;52.23;100622.50;5008806;28;20033;-70
2021/12/03 00:12:41;;;;;;;2.75;0.38;;;;;;;-0.58;51.59;100632.78;4977730;28;20045;-70
2021/12/03 00:15:09;;;;;;;2.92;0.10;;;;;;;-0.69;51.76;100643.00;5007659;28;20442;-69
2021/12/03 00:17:35;;;;;;;1.70;0.10;;;;;;;-0.71;51.83;100660.13;4999360;28;20053;-69
2021/12/03 00:20:01;;;;;;;3.50;0.45;;;;;;;-0.67;51.83;100651.56;5000774;28;20044;-70
2021/12/03 00:22:26;;;;;;;0.88;0.25;;;;;;;-1.13;53.58;100666.75;4982139;28;20108;-71
2021/12/03 00:24:52;;;;;;;0.82;0.20;;;;;;;-0.55;52.32;100666.16;5008234;28;20422;-69
2021/12/03 00:27:18;;;;;;;1.20;0.00;;;;;;;-0.42;52.02;100672.19;5007856;28;20084;-69
2021/12/03 00:29:43;;;;;;;1.17;0.30;;;;;;;-0.39;52.17;100672.22;5000279;28;20473;-69
2021/12/03 00:32:09;;;;;;;3.40;1.02;;;;;;;-0.45;52.54;100682.44;5005860;28;20045;-70
2021/12/03 00:34:35;;;;;;;3.85;0.60;;;;;;;-0.59;53.63;100683.28;5009385;28;20041;-70
2021/12/03 00:37:00;;;;;;;6.18;0.88;;;;;;;-0.40;53.86;100676.47;5009547;28;20052;-70
2021/12/03 00:39:27;;;;;;;0.45;0.10;;;;;;;-0.59;54.65;100680.72;4993331;28;20041;-70
2021/12/03 00:42:03;;;;;;;0.70;0.10;;;;;;;-0.17;53.61;100671.38;5006813;28;20509;-68
2021/12/03 00:44:30;;;;;;;4.45;0.65;;;;;;;0.13;52.74;100666.25;5010348;28;20130;-69
2021/12/03 00:46:56;;;;;;;1.98;0.68;;;;;;;0.22;52.70;100651.69;5008206;28;20045;-69
2021/12/03 00:49:22;;;;;;;10.88;0.70;;;;;;;0.24;52.11;100649.97;5008289;28;20535;-68
2021/12/03 00:51:48;;;;;;;0.80;0.10;;;;;;;0.33;51.92;100648.25;5007633;28;20116;-68
2021/12/03 00:54:14;;;;;;;0.50;0.10;;;;;;;0.44;51.86;100643.94;5006581;28;20037;-69
2021/12/03 00:56:40;;;;;;;0.57;0.00;;;;;;;0.39;51.84;100649.09;5003871;28;20488;-68
2021/12/03 00:59:06;;;;;;;0.30;0.10;;;;;;;0.20;52.11;100655.13;5008751;28;20072;-68
2021/12/03 01:01:31;;;;;;;2.80;0.10;;;;;;;0.03;52.56;100660.25;5009105;28;20030;-69
2021/12/03 01:03:57;;;;;;;1.33;0.10;;;;;;;-0.20;52.79;100655.94;5009656;28;20119;-68
2021/12/03 01:06:23;;;;;;;1.02;0.15;;;;;;;-0.02;52.14;100652.53;5010888;28;20057;-69
2021/12/03 01:08:48;;;;;;;0.68;0.10;;;;;;;-0.10;52.17;100645.69;5010148;28;20545;-68
2021/12/03 01:11:14;;;;;;;2.88;0.25;;;;;;;-0.43;52.95;100644.81;5011116;28;20029;-67
2021/12/03 01:13:42;;;;;;;2.03;0.30;;;;;;;-0.43;53.12;100631.97;5011229;28;20065;-67
2021/12/03 01:16:10;;;;;;;2.40;0.10;;;;;;;-0.63;53.66;100643.03;5010458;28;20029;-67
2021/12/03 01:18:36;;;;;;;0.50;0.17;;;;;;;-0.62;53.40;100639.59;5009635;28;20130;-68
2021/12/03 01:21:03;;;;;;;1.20;0.10;;;;;;;-0.27;52.41;100640.53;5009746;28;20044;-67
2021/12/03 01:23:29;;;;;;;0.45;0.20;;;;;;;-0.40;52.44;100639.66;5010884;28;20080;-69
2021/12/03 01:25:55;;;;;;;0.10;0.00;;;;;;;-0.31;52.22;100644.81;5008082;28;20044;-68
2021/12/03 01:28:21;;;;;;;3.63;0.10;;;;;;;-0.69;53.52;100643.00;5012416;28;20129;-69
2021/12/03 01:30:47;;;;;;;2.92;0.10;;;;;;;-0.39;52.29;100638.81;5008081;28;20026;-69
2021/12/03 01:33:13;;;;;;;0.98;0.10;;;;;;;-1.10;54.19;100638.56;5011022;28;20413;-71
2021/12/03 01:35:38;;;;;;;0.65;0.35;;;;;;;-0.66;53.56;100652.44;4980748;28;20029;-67
2021/12/03 01:38:06;;;;;;;0.45;0.00;;;;;;;-0.66;53.20;100648.19;4996302;28;20060;-67
2021/12/03 01:40:34;;;;;;;1.08;0.00;;;;;;;-0.58;53.03;100643.91;5012619;28;20040;-67
2021/12/03 01:43:02;;;;;;;0.38;0.00;;;;;;;-0.79;53.67;100649.00;5009770;28;20034;-66
2021/12/03 01:45:30;;;;;;;0.20;0.00;;;;;;;-0.60;53.26;100655.03;4995495;28;20406;-66
2021/12/03 01:47:57;;;;;;;2.47;0.00;;;;;;;-0.81;54.14;100655.81;5000148;28;20053;-67
2021/12/03 01:50:26;;;;;;;0.45;0.20;;;;;;;-1.02;54.89;100647.19;5009575;28;20374;-66
2021/12/03 01:52:52;;;;;;;0.40;0.00;;;;;;;-0.62;53.57;100659.28;5009481;28;21505;-66
2021/12/03 01:55:17;;;;;;;3.33;0.00;;;;;;;-0.60;53.61;100658.44;5010778;28;20041;-67
2021/12/03 01:57:43;;;;;;;1.38;0.10;;;;;;;-0.62;54.16;100654.16;4993980;28;20589;-67
2021/12/03 02:00:27;;;;;;;2.97;0.10;;;;;;;-0.41;53.19;100659.34;5011541;28;20060;-67
2021/12/03 02:02:53;;;;;;;5.88;0.50;;;;;;;-0.53;53.17;100684.13;5001387;28;20406;-67
2021/12/03 02:05:19;;;;;;;4.65;0.13;;;;;;;-0.40;52.89;100679.03;5009345;28;20037;-66
2021/12/03 02:07:45;;;;;;;8.27;0.60;;;;;;;-0.38;52.80;100668.78;5007152;28;20129;-65
2021/12/03 02:10:13;;;;;;;0.40;0.20;;;;;;;-0.33;52.95;100674.75;5011164;28;20034;-66
2021/12/03 02:12:38;;;;;;;0.65;0.20;;;;;;;-0.97;55.53;100672.88;5009277;28;20557;-66
2021/12/03 02:15:04;;;;;;;0.73;0.10;;;;;;;-0.45;54.26;100667.03;4995843;28;20037;-68
2021/12/03 02:17:30;;;;;;;0.73;0.00;;;;;;;-0.42;54.17;100677.31;5010932;28;20511;-66
2021/12/03 02:19:56;;;;;;;0.80;0.10;;;;;;;-0.32;53.71;100673.94;5010955;28;20492;-66
2021/12/03 02:22:21;;;;;;;1.58;0.20;;;;;;;-0.41;53.60;100673.91;5008580;28;20042;-68
2021/12/03 02:24:47;;;;;;;0.35;0.10;;;;;;;-0.40;53.90;100675.59;5002585;28;20075;-66
2021/12/03 02:27:12;;;;;;;2.17;0.73;;;;;;;-0.27;53.14;100671.38;5000149;28;20045;-66
2021/12/03 02:29:38;;;;;;;0.45;0.20;;;;;;;-0.32;53.62;100673.94;5006826;28;20034;-67
2021/12/03 02:32:04;;;;;;;0.60;0.10;;;;;;;-1.09;55.65;100665.91;5010609;28;20038;-66
2021/12/03 02:34:30;;;;;;;3.22;0.10;;;;;;;-1.14;55.73;100662.47;5012105;28;20045;-66
2021/12/03 02:36:56;;;;;;;1.25;0.10;;;;;;;-1.12;56.48;100658.22;4998755;28;20145;-67
2021/12/03 02:39:22;;;;;;;2.53;0.45;;;;;;;-0.70;55.15;100654.16;5008486;28;20128;-70
2021/12/03 02:41:47;;;;;;;1.08;0.20;;;;;;;-0.73;54.94;100651.56;5010282;28;20088;-71
2021/12/03 02:44:13;;;;;;;4.70;0.22;;;;;;;-0.59;54.78;100652.47;4995705;28;20045;-71
2021/12/03 02:46:38;;;;;;;1.95;0.22;;;;;;;-0.79;55.16;100656.69;5010337;28;20056;-71
2021/12/03 02:49:05;;;;;;;5.28;0.60;;;;;;;-0.61;55.25;100672.13;4992332;28;20504;-71
2021/12/03 02:51:31;;;;;;;10.45;0.75;;;;;;;-0.32;54.73;100679.06;5010476;28;20064;-72
2021/12/03 02:53:57;;;;;;;6.72;1.58;;;;;;;-0.65;56.14;100685.81;5010913;28;20549;-70
2021/12/03 02:56:22;;;;;;;3.33;0.30;;;;;;;-0.63;56.36;100702.06;5008580;28;20059;-70
2021/12/03 02:58:48;;;;;;;3.47;0.20;;;;;;;-0.92;57.89;100685.72;5006636;28;20133;-70
2021/12/03 03:01:14;;;;;;;3.58;0.43;;;;;;;-0.86;57.77;100689.16;4999537;28;20301;-70
2021/12/03 03:03:39;;;;;;;4.20;0.30;;;;;;;-0.44;56.58;100687.56;4999705;28;20042;-71
2021/12/03 03:06:07;;;;;;;0.82;0.20;;;;;;;-0.32;56.05;100683.34;4995080;28;20147;-71
2021/12/03 03:08:33;;;;;;;3.83;0.20;;;;;;;-0.17;55.76;100676.53;5010275;28;20034;-71
2021/12/03 03:11:02;;;;;;;0.75;0.08;;;;;;;-0.08;55.25;100672.22;4994439;28;20025;-70
2021/12/03 03:13:28;;;;;;;0.20;0.03;;;;;;;-0.09;55.43;100644.84;5011262;28;20042;-70
2021/12/03 03:15:53;;;;;;;1.33;0.10;;;;;;;-0.03;55.13;100644.84;4994171;28;20044;-70
2021/12/03 03:18:22;;;;;;;2.28;0.00;;;;;;;-0.03;55.47;100620.00;5009488;28;20069;-70
2021/12/03 03:20:47;;;;;;;4.68;1.33;;;;;;;0.14;54.72;100625.13;4978343;28;20026;-71
2021/12/03 03:23:15;;;;;;;2.72;0.20;;;;;;;0.37;53.61;100632.81;5010149;28;20057;-71
2021/12/03 03:25:42;;;;;;;2.22;0.17;;;;;;;-0.17;55.03;100642.25;5009583;28;20486;-70
2021/12/03 03:28:09;;;;;;;1.20;0.10;;;;;;;-0.08;54.63;100641.41;5008092;28;20048;-71
2021/12/03 03:30:35;;;;;;;4.15;0.50;;;;;;;-0.19;55.28;100636.25;5009531;28;20025;-71
2021/12/03 03:33:02;;;;;;;0.68;0.25;;;;;;;0.03;54.40;100630.28;5011536;28;20064;-70
2021/12/03 03:35:28;;;;;;;2.20;0.25;;;;;;;-0.23;55.16;100625.13;5002243;28;20037;-70
2021/12/03 03:37:54;;;;;;;1.30;0.10;;;;;;;-0.28;55.55;100632.00;5009279;28;20117;-69
2021/12/03 03:40:20;;;;;;;6.40;0.20;;;;;;;-0.38;56.06;100627.69;4993793;28;20068;-72
2021/12/03 03:42:45;;;;;;;2.40;0.65;;;;;;;-0.13;54.71;100619.13;4999166;28;20037;-70
2021/12/03 03:45:15;;;;;;;0.60;0.20;;;;;;;-0.31;55.33;100611.41;4996078;28;20102;-71
2021/12/03 03:47:41;;;;;;;3.83;0.22;;;;;;;-0.59;55.95;100619.09;5007770;28;20038;-71
2021/12/03 03:50:08;;;;;;;0.70;0.10;;;;;;;-0.49;55.75;100613.97;5012051;28;20021;-70
2021/12/03 03:52:36;;;;;;;5.22;0.20;;;;;;;-0.50;55.76;100605.41;5007422;28;20037;-70
2021/12/03 03:55:03;;;;;;;6.32;0.40;;;;;;;-0.48;55.45;100607.97;5011423;28;20505;-71
2021/12/03 03:57:28;;;;;;;4.90;0.20;;;;;;;-0.50;55.71;100614.81;5005670;28;20562;-68
2021/12/03 03:59:54;;;;;;;1.25;0.10;;;;;;;-0.36;55.05;100610.56;5010395;28;20146;-68
2021/12/03 04:02:20;;;;;;;3.13;0.20;;;;;;;-0.46;55.59;100619.97;4998410;28;20042;-67
2021/12/03 04:04:45;;;;;;;1.13;0.22;;;;;;;-0.19;54.59;100616.56;5008131;28;20605;-67
2021/12/03 04:07:11;;;;;;;2.55;0.30;;;;;;;-0.19;54.11;100608.88;5005687;28;20033;-68
2021/12/03 04:09:36;;;;;;;1.10;0.38;;;;;;;-0.84;56.47;100607.03;5008933;28;20041;-68
2021/12/03 04:12:02;;;;;;;1.25;0.65;;;;;;;-0.54;55.49;100615.69;5005808;28;20095;-68
2021/12/03 04:14:27;;;;;;;0.38;0.10;;;;;;;-0.67;55.88;100609.66;5008621;28;20038;-68
2021/12/03 04:16:55;;;;;;;0.60;0.10;;;;;;;-0.36;55.04;100606.28;4991153;28;20525;-67
2021/12/03 04:19:21;;;;;;;2.28;0.30;;;;;;;-0.40;55.13;100601.13;5008287;28;20073;-69
2021/12/03 04:21:47;;;;;;;0.82;0.30;;;;;;;-0.50;55.62;100604.53;5007029;28;20041;-69
2021/12/03 04:24:12;;;;;;;0.95;0.20;;;;;;;-0.29;54.93;100604.56;5006869;28;20497;-68
2021/12/03 04:26:38;;;;;;;2.05;0.28;;;;;;;-0.50;55.57;100601.97;5006054;28;20461;-69
2021/12/03 04:29:03;;;;;;;6.28;0.47;;;;;;;-1.06;57.30;100606.97;5007897;28;20038;-70
2021/12/03 04:31:29;;;;;;;1.05;0.50;;;;;;;-0.57;55.89;100606.28;4999161;28;20032;-71
2021/12/03 04:33:55;;;;;;;1.25;0.45;;;;;;;-1.31;57.70;100605.13;5008335;28;20088;-70
2021/12/03 04:36:23;;;;;;;7.90;0.60;;;;;;;-0.57;56.27;100599.41;5007623;28;20044;-70
2021/12/03 04:38:48;;;;;;;4.47;0.60;;;;;;;-0.40;55.73;100593.44;5009917;28;20092;-70
2021/12/03 04:41:14;;;;;;;0.50;0.20;;;;;;;-0.53;56.17;100592.56;5014513;28;20490;-69
2021/12/03 04:43:40;;;;;;;3.45;0.30;;;;;;;-0.59;56.47;100592.56;5010879;28;20084;-66
2021/12/03 04:46:06;;;;;;;3.45;0.57;;;;;;;-0.58;56.38;100584.84;5008234;28;20049;-66
2021/12/03 04:48:31;;;;;;;2.58;0.47;;;;;;;-0.47;56.14;100586.59;5012580;28;20038;-66
2021/12/03 04:50:57;;;;;;;3.33;0.47;;;;;;;-0.28;55.46;100588.31;5011210;28;20551;-66
2021/12/03 04:53:23;;;;;;;1.27;0.50;;;;;;;-0.68;56.58;100582.25;5011565;28;20075;-67
2021/12/03 04:55:50;;;;;;;2.50;1.23;;;;;;;-0.63;56.82;100586.56;4993549;28;20564;-67
2021/12/03 04:58:17;;;;;;;2.35;0.98;;;;;;;-0.61;56.79;100584.00;5011763;28;20053;-67
2021/12/03 05:00:49;;;;;;;2.38;0.85;;;;;;;-1.04;57.59;100589.00;4996292;28;20354;-68
2021/12/03 05:03:16;;;;;;;3.63;1.00;;;;;;;-0.68;56.83;100588.28;5011347;28;20608;-68
2021/12/03 05:05:47;;;;;;;3.00;1.13;;;;;;;-0.74;57.06;100585.69;5013441;28;20038;-68
2021/12/03 05:08:12;;;;;;;5.57;0.60;;;;;;;-0.43;55.88;100583.19;5011587;28;20049;-68
2021/12/03 05:10:40;;;;;;;7.68;1.77;;;;;;;-0.70;57.09;100582.28;4996264;28;20478;-70
2021/12/03 05:13:09;;;;;;;9.48;1.30;;;;;;;-0.72;57.02;100594.25;5011167;28;20042;-69
2021/12/03 05:15:37;;;;;;;2.65;1.13;;;;;;;-0.99;57.73;100588.19;5010254;28;20034;-71
2021/12/03 05:18:04;;;;;;;5.43;2.28;;;;;;;-0.88;57.52;100579.69;5012340;28;20034;-69
2021/12/03 05:20:29;;;;;;;2.60;1.42;;;;;;;-0.72;57.10;100580.56;5011405;28;20090;-69
2021/12/03 05:22:56;;;;;;;5.80;2.05;;;;;;;-0.76;56.88;100580.53;5011407;28;20033;-69
2021/12/03 05:25:22;;;;;;;6.18;2.33;;;;;;;-1.01;57.48;100578.78;4994268;28;20052;-70
2021/12/03 05:27:50;;;;;;;7.45;2.90;;;;;;;-0.76;57.33;100574.56;5012554;28;20042;-69
2021/12/03 05:30:16;;;;;;;5.97;3.17;;;;;;;-1.31;58.87;100582.03;4996723;28;20067;-69
2021/12/03 05:32:42;;;;;;;5.53;3.13;;;;;;;-1.14;58.20;100577.84;5009209;28;20069;-69
2021/12/03 05:35:09;;;;;;;6.57;3.50;;;;;;;-1.18;58.40;100571.81;5010534;28;20121;-69
2021/12/03 05:37:34;;;;;;;9.02;3.88;;;;;;;-0.95;57.34;100575.34;5009728;28;20048;-70
2021/12/03 05:40:00;;;;;;;7.82;4.18;;;;;;;-1.06;57.81;100573.63;4995106;28;20699;-68
2021/12/03 05:42:25;;;;;;;15.45;5.70;;;;;;;-1.10;58.17;100574.44;5000159;28;20642;-67
2021/12/03 05:44:53;;;;;;;15.23;6.57;;;;;;;-1.29;58.41;100572.66;5002651;28;20937;-67
2021/12/03 05:47:18;;;;;;;10.15;5.90;;;;;;;-0.72;56.87;100568.59;5009464;28;20406;-69
2021/12/03 05:49:44;;;;;;;9.95;5.68;;;;;;;-1.04;57.50;100578.75;4997746;28;20033;-69
2021/12/03 05:52:09;;;;;;;12.68;5.57;;;;;;;-0.68;56.56;100574.56;5010453;28;20109;-70
2021/12/03 05:54:35;;;;;;;16.33;7.43;;;;;;;-1.32;58.29;100573.50;4998532;28;20037;-69
2021/12/03 05:57:00;;;;;;;17.60;8.40;;;;;;;-1.37;58.63;100570.06;5009506;28;20076;-69
2021/12/03 05:59:26;;;;;;;15.10;7.18;;;;;;;-1.27;58.44;100570.94;5010766;28;20048;-70
2021/12/03 06:01:52;;;;;;;19.77;8.52;;;;;;;-0.90;57.06;100568.56;4992907;28;20045;-69
2021/12/03 06:04:17;;;;;;;14.50;8.75;;;;;;;-1.18;57.76;100568.41;4996972;28;20041;-69
2021/12/03 06:06:43;;;;;;;14.60;8.75;;;;;;;-1.25;58.21;100561.56;4988469;28;20046;-68
2021/12/03 06:09:08;;;;;;;18.77;8.77;;;;;;;-1.34;58.34;100556.41;4992961;28;20033;-69
2021/12/03 06:11:34;;;;;;;15.23;8.85;;;;;;;-1.35;58.75;100552.09;4987815;28;20029;-67
2021/12/03 06:13:59;;;;;;;15.27;8.40;;;;;;;-1.14;57.76;100546.22;4991259;28;20081;-69
2021/12/03 06:16:25;;;;;;;15.45;8.23;;;;;;;-1.36;57.99;100545.28;4974842;28;20038;-69
2021/12/03 06:18:50;;;;;;;20.88;10.40;;;;;;;-1.07;57.31;100551.34;4990226;28;20088;-70
2021/12/03 06:21:16;;;;;;;14.23;8.40;;;;;;;-1.26;57.47;100544.47;4992913;28;20826;-71
2021/12/03 06:23:42;;;;;;;15.85;7.75;;;;;;;-0.97;56.84;100550.56;4990421;28;20045;-69
2021/12/03 06:26:09;;;;;;;13.48;8.88;;;;;;;-1.31;57.98;100543.56;4988698;28;20057;-69
2021/12/03 06:28:39;;;;;;;15.88;8.07;;;;;;;-1.45;58.42;100541.81;4990723;28;20056;-71
2021/12/03 06:31:05;;;;;;;14.32;8.82;;;;;;;-1.12;57.25;100545.38;4972248;28;20034;-68
2021/12/03 06:33:31;;;;;;;18.20;8.73;;;;;;;-1.61;58.68;100550.28;4990684;28;20045;-70
2021/12/03 06:35:57;;;;;;;14.48;8.50;;;;;;;-1.88;59.79;100544.16;4973586;28;20558;-67
2021/12/03 06:38:23;;;;;;;18.77;9.60;;;;;;;-1.40;58.07;100537.59;4976164;28;20121;-69
2021/12/03 06:40:51;;;;;;;12.88;8.23;;;;;;;-1.12;57.13;100540.22;4988656;28;20092;-68
2021/12/03 06:43:17;;;;;;;20.30;8.70;;;;;;;-1.24;57.35;100540.19;4989837;28;20050;-68
2021/12/03 06:45:44;;;;;;;12.02;7.65;;;;;;;-1.10;56.81;100543.66;4988202;28;20432;-68
2021/12/03 06:48:09;;;;;;;14.60;10.20;;;;;;;-0.99;56.33;100541.16;4988757;28;20054;-68
2021/12/03 06:50:36;;;;;;;17.33;8.70;;;;;;;-0.87;55.83;100540.31;4989260;28;20034;-68
2021/12/03 06:53:05;;;;;;;13.13;8.07;;;;;;;-0.88;55.88;100546.31;4987741;28;20104;-70
2021/12/03 06:55:46;;;;;;;18.70;8.57;;;;;;;-1.18;56.88;100535.06;4974363;28;20041;-69
2021/12/03 06:58:15;;;;;;;12.83;7.67;;;;;;;-1.16;56.81;100541.06;4973957;28;20048;-69
2021/12/03 07:00:42;;;;;;;15.68;8.68;;;;;;;-1.93;58.83;100530.47;4974496;28;20072;-70
2021/12/03 07:03:08;;;;;;;12.70;8.43;;;;;;;-1.12;56.65;100545.38;4988602;28;20038;-69
2021/12/03 07:05:33;;;;;;;18.63;8.27;;;;;;;-1.00;56.29;100540.28;4989389;28;20030;-70
2021/12/03 07:07:59;;;;;;;14.30;7.85;;;;;;;-1.08;56.61;100536.81;4987638;28;20439;-68
2021/12/03 07:10:25;;;;;;;11.77;7.13;;;;;;;-1.18;56.87;100540.19;4989834;28;20136;-69
2021/12/03 07:12:50;;;;;;;15.38;8.38;;;;;;;-1.85;58.77;100533.91;4971592;28;20341;-69
2021/12/03 07:15:17;;;;;;;13.35;8.82;;;;;;;-1.60;57.85;100534.94;4986997;28;20154;-70
2021/12/03 07:17:42;;;;;;;12.05;7.75;;;;;;;-1.57;57.83;100536.66;4987229;28;20048;-69
2021/12/03 07:20:10;;;;;;;11.43;8.02;;;;;;;-1.13;56.37;100523.13;4958944;28;20029;-69
2021/12/03 07:22:36;;;;;;;9.85;5.95;;;;;;;-1.24;56.94;100528.25;4968688;28;20061;-69
2021/12/03 07:25:04;;;;;;;13.18;6.88;;;;;;;-1.45;57.56;100525.56;4975461;28;20099;-68
2021/12/03 07:27:29;;;;;;;9.73;7.00;;;;;;;-1.06;56.21;100530.03;4975371;28;20436;-68
2021/12/03 07:29:55;;;;;;;10.40;6.28;;;;;;;-1.41;56.85;100538.41;4976603;28;20138;-68
2021/12/03 07:32:24;;;;;;;16.63;6.13;;;;;;;-1.67;57.99;100533.16;4987167;28;20050;-68
2021/12/03 07:34:50;;;;;;;8.88;6.13;;;;;;;-1.05;56.53;100531.72;4989861;28;20492;-69
2021/12/03 07:37:17;;;;;;;8.10;6.50;;;;;;;-1.54;57.64;100531.53;4996155;23;20045;-64
2021/12/03 07:39:44;;;;;;;18.95;8.10;;;;;;;-1.07;56.89;100533.41;4995504;28;20291;-64
2021/12/03 07:42:10;;;;;;;14.80;6.57;;;;;;;-1.15;56.83;100539.34;4988291;28;20087;-63
2021/12/03 07:44:36;;;;;;;19.98;7.40;;;;;;;-1.58;58.42;100529.78;5018661;28;20038;-63
2021/12/03 07:47:02;;;;;;;16.23;7.65;;;;;;;-1.89;59.05;100529.66;5016930;28;20052;-63
2021/12/03 07:49:28;;;;;;;12.15;6.75;;;;;;;-1.28;57.52;100534.19;5001294;28;20629;-62
2021/12/03 07:51:54;;;;;;;10.70;7.35;;;;;;;-1.38;58.04;100532.44;5012404;28;20218;-63
2021/12/03 07:54:21;;;;;;;14.43;7.68;;;;;;;-1.09;57.37;100535.09;4994867;28;20083;-64
2021/12/03 07:56:46;;;;;;;12.60;6.85;;;;;;;-1.16;57.47;100533.38;5010112;28;20048;-63
2021/12/03 07:59:12;;;;;;;22.48;8.23;;;;;;;-1.27;57.68;100540.19;5002839;28;20041;-64
2021/12/03 08:01:40;;;;;;;14.18;7.53;;;;;;;-1.52;59.08;100537.50;5011556;28;20390;-64
2021/12/03 08:04:06;;;;;;;12.65;6.90;;;;;;;-1.08;57.72;100536.81;5011492;28;20034;-63
2021/12/03 08:06:31;;;;;;;10.25;6.60;;;;;;;-0.39;55.74;100528.41;5008823;28;20044;-62
2021/12/03 08:08:57;;;;;;;10.95;7.03;;;;;;;-0.75;56.64;100535.19;5012728;28;20037;-63
2021/12/03 08:11:22;;;;;;;10.35;6.55;;;;;;;-1.16;57.79;100523.13;5015184;28;20115;-64
2021/12/03 08:13:48;;;;;;;14.07;8.70;;;;;;;-0.96;57.56;100536.03;5003638;28;20489;-64
2021/12/03 08:16:13;;;;;;;12.40;6.57;;;;;;;-0.96;57.95;100525.75;5010643;28;20041;-64
2021/12/03 08:18:39;;;;;;;12.00;7.10;;;;;;;-0.80;57.27;100513.81;5008010;28;20108;-64
2021/12/03 08:21:04;;;;;;;12.20;7.07;;;;;;;-0.71;56.91;100506.13;4997147;28;20058;-64
2021/12/03 08:23:30;;;;;;;15.32;6.28;;;;;;;-0.61;56.55;100512.97;4992747;28;20121;-64
2021/12/03 08:25:55;;;;;;;14.45;7.65;;;;;;;-1.30;59.15;100509.41;5011629;28;20044;-62
2021/12/03 08:28:22;;;;;;;14.77;6.55;;;;;;;-0.58;56.46;100512.97;4999405;28;20061;-63
2021/12/03 08:30:47;;;;;;;11.63;6.15;;;;;;;-0.88;57.97;100512.97;5010467;28;20471;-64
2021/12/03 08:33:13;;;;;;;16.98;6.60;;;;;;;-0.65;57.38;100508.69;5012191;28;20049;-63
2021/12/03 08:35:38;;;;;;;10.18;7.18;;;;;;;-0.44;57.01;100510.41;5012065;28;20099;-63
2021/12/03 08:38:04;;;;;;;12.95;6.38;;;;;;;-0.77;57.29;100495.88;4999503;28;20046;-63
2021/12/03 08:40:29;;;;;;;11.32;6.47;;;;;;;-0.23;56.00;100503.56;5009591;28;20033;-64
2021/12/03 08:42:55;;;;;;;15.10;6.38;;;;;;;0.15;55.45;100493.19;4998657;28;20040;-63
2021/12/03 08:45:21;;;;;;;9.35;6.50;;;;;;;-0.25;55.80;100492.44;5011466;28;20445;-63
2021/12/03 08:47:52;;;;;;;9.90;6.05;;;;;;;-0.02;55.77;100487.25;4993019;28;20037;-63
2021/12/03 08:50:28;;;;;;;7.40;4.53;;;;;;;-0.77;57.35;100490.75;5010870;28;20076;-65
2021/12/03 08:53:17;;;;;;;10.43;6.22;;;;;;;0.01;55.77;100476.94;4994587;28;20030;-64
2021/12/03 08:55:43;;;;;;;11.98;6.13;;;;;;;-0.81;57.92;100484.75;4992561;28;20037;-62
2021/12/03 08:58:10;;;;;;;7.93;5.72;;;;;;;-0.35;56.49;100484.75;5011368;28;20046;-64
2021/12/03 09:00:37;;;;;;;11.32;5.90;;;;;;;-0.50;56.76;100474.47;5011791;28;20022;-64
2021/12/03 09:03:05;;;;;;;8.35;5.30;;;;;;;-0.13;56.14;100477.84;5007727;28;20038;-64
2021/12/03 09:05:32;;;;;;;10.32;5.78;;;;;;;0.03;55.78;100472.66;5010486;28;20513;-64
2021/12/03 09:07:58;;;;;;;10.77;4.90;;;;;;;0.04;55.87;100470.09;4991288;28;20043;-63
2021/12/03 09:10:24;;;;;;;8.68;5.95;;;;;;;0.04;55.91;100466.69;5011796;28;20053;-63
2021/12/03 09:12:51;;;;;;;8.23;5.43;;;;;;;0.45;54.58;100470.78;5032950;28;20042;-64
2021/12/03 09:15:23;;;;;;;12.02;6.63;;;;;;;0.34;55.07;100470.00;5028937;28;20042;-63
2021/12/03 09:23:09;;;;;;;9.15;5.60;;;;;;;0.66;54.75;100457.00;5022462;28;20041;-62
2021/12/03 09:25:37;;;;;;;9.95;5.82;;;;;;;0.38;55.00;100469.97;5015501;28;20227;-64
2021/12/03 09:28:06;;;;;;;8.82;5.88;;;;;;;0.66;54.41;100455.25;4999581;28;20569;-64
2021/12/03 09:30:41;;;;;;;8.20;5.60;;;;;;;0.83;53.91;100459.44;4991624;28;20137;-64
2021/12/03 09:33:11;;;;;;;14.73;6.82;;;;;;;-0.13;56.53;100469.28;4980567;28;20058;-64
2021/12/03 09:35:49;;;;;;;9.38;6.07;;;;;;;0.16;56.27;100463.19;5004473;28;20091;-63
2021/12/03 09:38:14;;;;;;;14.65;6.35;;;;;;;0.49;54.97;100454.50;5014848;28;20060;-64
2021/12/03 09:40:41;;;;;;;11.70;5.88;;;;;;;-0.47;57.60;100441.09;4998194;28;20021;-63
2021/12/03 09:43:07;;;;;;;10.48;6.53;;;;;;;-0.14;56.96;100436.75;5015447;28;20098;-63
2021/12/03 09:45:34;;;;;;;9.50;5.85;;;;;;;0.18;56.24;100435.78;5015587;28;20026;-64
2021/12/03 09:48:04;;;;;;;13.52;6.75;;;;;;;0.19;55.91;100428.06;5015498;28;20056;-62
2021/12/03 09:50:30;;;;;;;14.07;6.30;;;;;;;-0.20;57.31;100439.31;5012533;28;20070;-63
2021/12/03 09:53:14;;;;;;;16.25;6.35;;;;;;;0.17;56.26;100434.94;4997798;28;20118;-65
2021/12/03 09:55:41;;;;;;;12.77;6.68;;;;;;;0.23;56.21;100437.50;5007711;28;20030;-63
2021/12/03 10:03:21;;;;;;;16.48;7.68;;;;;;;0.27;55.70;100439.16;5017345;28;20073;-64
2021/12/03 10:14:29;;;;;;;20.10;8.88;;;;;;;0.54;55.66;100421.88;5016898;28;20194;-65
2021/12/03 10:25:25;;;;;;;9.80;5.37;;;;;;;-0.04;56.94;100399.03;5015057;28;20128;-62
2021/12/03 11:00:17;;;;;;;33.20;12.57;;;;;;;0.11;57.38;100339.03;5013426;28;20029;-63
2021/12/03 11:05:39;;;;;;;26.23;12.85;;;;;;;0.33;56.74;100325.19;4997530;28;20041;-64
2021/12/03 11:17:01;;;;;;;29.00;13.05;;;;;;;0.90;55.09;100307.59;5012614;28;20041;-63
2021/12/03 12:00:24;;;;;;;30.05;11.60;;;;;;;0.34;56.36;100242.03;5013735;28;20037;-64
2021/12/03 12:18:28;;;;;;;19.50;8.07;;;;;;;0.47;56.07;100183.66;5009236;28;20037;-63
2021/12/03 12:33:37;;;;;;;19.38;7.18;;;;;;;-0.48;59.12;100184.34;5005294;28;20085;-64
2021/12/03 13:07:06;;;;;;;15.85;6.78;;;;;;;-0.90;61.46;100125.53;4982500;28;20136;-64
2021/12/03 13:58:39;;;;;;;7.30;3.35;;;;;;;-0.22;60.24;100033.50;4937608;28;20514;-67
2021/12/03 14:06:23;;;;;;;4.28;3.75;;;;;;;-0.49;61.41;100019.19;4920855;29;20460;-68
2021/12/03 14:38:50;;;;;;;8.65;4.35;;;;;;;-0.79;63.01;99974.94;4951344;28;20118;-69
2021/12/03 14:44:51;;;;;;;8.18;3.90;;;;;;;-0.46;61.79;99987.50;4961209;28;20043;-69
2021/12/03 14:55:37;;;;;;;6.53;4.65;;;;;;;-0.17;61.03;99980.41;4974938;28;20952;-68
2021/12/03 14:58:47;;;;;;;9.07;4.95;;;;;;;-0.53;62.31;99991.00;4958360;28;20106;-67
2021/12/03 15:01:13;;;;;;;7.82;5.18;;;;;;;-0.52;62.12;99974.75;4955435;28;20046;-67
2021/12/03 15:08:46;;;;;;;10.13;4.80;;;;;;;0.17;59.76;99979.19;4956574;28;20137;-67
2021/12/03 15:30:01;;;;;;;7.70;4.95;;;;;;;-0.31;61.01;99958.28;4956941;28;20431;-67
2021/12/03 16:04:27;;;;;;;12.95;5.60;;;;;;;-0.30;62.51;99958.28;4967295;28;20054;-68
2021/12/03 16:07:02;;;;;;;13.77;7.00;;;;;;;0.32;60.88;99957.59;4966378;28;20471;-68
2021/12/03 16:44:12;;;;;;;17.52;7.18;;;;;;;0.51;61.75;99947.94;4960143;28;20116;-68
2021/12/03 16:52:06;;;;;;;14.95;6.65;;;;;;;0.50;61.70;99939.34;4925277;29;20079;-67
2021/12/03 16:56:57;;;;;;;11.57;6.53;;;;;;;-0.28;64.23;99941.16;4970752;28;20047;-67
2021/12/03 16:59:24;;;;;;;11.20;6.43;;;;;;;0.29;62.77;99932.78;4970871;28;20639;-67
2021/12/03 17:02:05;;;;;;;11.77;6.32;;;;;;;0.46;61.98;99927.44;4974799;28;20404;-68
2021/12/03 17:15:13;;;;;;;24.20;7.38;;;;;;;1.12;60.92;99929.00;4961981;28;20468;-67
2021/12/03 17:47:38;;;;;;;18.55;7.70;;;;;;;1.00;61.93;99922.34;4955677;28;20300;-66
2021/12/03 17:57:56;;;;;;;15.52;9.60;;;;;;;0.82;62.54;99910.63;4968575;28;20093;-68
2021/12/03 18:00:31;;;;;;;18.70;9.10;;;;;;;1.13;61.49;99909.28;4957243;28;20566;-67
2021/12/03 18:03:09;;;;;;;15.32;9.25;;;;;;;1.30;60.97;99910.72;4954250;28;20157;-67
2021/12/03 18:08:28;;;;;;;12.02;8.40;;;;;;;0.66;62.58;99915.16;4954141;28;20039;-67
2021/12/03 18:51:39;;;;;;;17.52;10.43;;;;;;;0.95;62.28;99907.84;4956449;28;20112;-67
2021/12/03 18:56:36;;;;;;;19.45;11.18;;;;;;;1.40;61.44;99914.00;4953199;28;20519;-67
2021/12/03 18:59:04;;;;;;;15.55;9.68;;;;;;;1.38;61.50;99910.56;4955548;28;20038;-68
2021/12/03 19:01:32;;;;;;;20.83;11.10;;;;;;;1.25;61.69;99909.09;4970065;28;20113;-67
2021/12/03 19:09:58;;;;;;;15.43;9.23;;;;;;;1.59;61.21;99903.38;4967237;28;20045;-67